createdAt,value
2019-02-07T00:01:09.150Z,79.39
2019-02-07T00:03:40.652Z,79.18
2019-02-07T00:06:10.391Z,79.11
2019-02-07T00:08:42.089Z,78.77
2019-02-07T00:11:12.103Z,78.75
2019-02-07T00:13:43.899Z,78.81
2019-02-07T00:16:13.850Z,78.26
2019-02-07T00:18:44.101Z,77.78
2019-02-07T00:21:13.561Z,77.72
2019-02-07T00:23:44.027Z,77.86
2019-02-07T00:26:14.786Z,77.80
2019-02-07T00:28:45.243Z,77.96
2019-02-07T00:31:18.948Z,77.75
2019-02-07T00:33:50.673Z,77.49
2019-02-07T00:36:21.745Z,77.48
2019-02-07T00:38:53.062Z,77.22
2019-02-07T00:41:26.033Z,76.71
2019-02-07T00:43:56.043Z,76.33
2019-02-07T00:46:29.307Z,75.93
2019-02-07T00:48:58.873Z,75.79
2019-02-07T00:51:30.116Z,76.01
2019-02-07T00:54:01.421Z,75.58
2019-02-07T00:56:35.203Z,75.18
2019-02-07T00:59:06.474Z,74.70
2019-02-07T01:01:54.435Z,74.48
2019-02-07T01:04:24.862Z,74.21
2019-02-07T01:06:53.955Z,74.25
2019-02-07T01:09:24.306Z,74.28
2019-02-07T01:11:54.014Z,74.29
2019-02-07T01:14:30.203Z,74.42
2019-02-07T01:17:01.019Z,74.12
2019-02-07T01:19:32.153Z,73.82
2019-02-07T01:22:02.865Z,73.87
2019-02-07T01:24:33.377Z,73.50
2019-02-07T01:27:03.331Z,73.09
2019-02-07T01:29:34.875Z,72.60
2019-02-07T01:32:06.254Z,72.22
2019-02-07T01:34:39.157Z,72.18
2019-02-07T01:37:08.829Z,71.59
2019-02-07T01:39:39.094Z,71.60
2019-02-07T01:42:09.184Z,71.33
2019-02-07T01:44:40.516Z,70.89
2019-02-07T01:47:10.205Z,70.88
2019-02-07T01:49:42.374Z,70.55
2019-02-07T01:52:12.404Z,70.61
2019-02-07T01:54:46.318Z,71.04
2019-02-07T01:57:16.847Z,71.01
2019-02-07T01:59:51.873Z,70.66
2019-02-07T02:02:24.463Z,70.05
2019-02-07T02:04:55.810Z,70.13
2019-02-07T02:07:25.254Z,70.42
2019-02-07T02:09:54.892Z,70.27
2019-02-07T02:12:24.217Z,70.04
2019-02-07T02:14:56.757Z,70.10
2019-02-07T02:17:25.935Z,69.92
2019-02-07T02:19:58.740Z,69.97
2019-02-07T02:22:31.211Z,70.10
2019-02-07T02:25:00.758Z,70.07
2019-02-07T02:27:30.530Z,69.75
2019-02-07T02:30:01.123Z,69.61
2019-02-07T02:32:39.423Z,69.41
2019-02-07T02:35:10.047Z,69.44
2019-02-07T02:37:46.085Z,69.36
2019-02-07T02:40:17.735Z,69.30
2019-02-07T02:42:49.966Z,69.48
2019-02-07T02:45:21.534Z,69.65
2019-02-07T02:47:57.268Z,69.52
2019-02-07T02:50:28.212Z,69.50
2019-02-07T02:52:59.777Z,69.21
2019-02-07T02:55:33.777Z,68.97
2019-02-07T02:58:07.520Z,69.16
2019-02-07T03:00:42.565Z,69.22
2019-02-07T03:03:20.997Z,69.39
2019-02-07T03:05:58.079Z,69.74
2019-02-07T03:08:38.702Z,69.85
2019-02-07T03:12:13.850Z,70.13
2019-02-07T03:14:49.407Z,70.71
2019-02-07T03:17:40.381Z,71.10
2019-02-07T03:21:16.639Z,71.73
2019-02-07T03:23:53.802Z,72.53
2019-02-07T03:28:33.843Z,72.97
2019-02-07T03:31:13.757Z,73.18
2019-02-07T03:35:53.216Z,73.30
2019-02-07T03:38:33.016Z,73.37
2019-02-07T03:41:08.139Z,73.49
2019-02-07T03:43:42.364Z,73.42
2019-02-07T03:46:35.759Z,73.44
2019-02-07T03:49:17.741Z,73.49
2019-02-07T03:51:51.207Z,73.29
2019-02-07T03:54:30.234Z,73.36
2019-02-07T03:57:05.434Z,73.35
2019-02-07T03:59:39.092Z,73.35
2019-02-07T04:02:20.907Z,73.60
2019-02-07T04:05:03.309Z,73.59
2019-02-07T04:07:45.541Z,73.32
2019-02-07T04:11:26.430Z,73.08
2019-02-07T04:14:07.415Z,72.91
2019-02-07T04:16:42.368Z,72.94
2019-02-07T04:20:17.675Z,73.23
2019-02-07T04:27:12.110Z,73.25
2019-02-07T04:29:50.286Z,73.34
2019-02-07T04:32:34.844Z,73.42
2019-02-07T04:35:45.894Z,73.30
2019-02-07T04:38:25.046Z,73.16
2019-02-07T04:41:58.577Z,73.16
2019-02-07T04:48:49.994Z,73.03
2019-02-07T04:51:27.590Z,71.99
2019-02-07T04:54:16.860Z,72.12
2019-02-07T04:56:52.817Z,72.38
2019-02-07T05:00:06.462Z,72.46
2019-02-07T05:02:41.691Z,72.55
2019-02-07T05:05:18.625Z,73.04
2019-02-07T05:07:54.277Z,73.33
2019-02-07T05:11:32.470Z,73.48
2019-02-07T05:14:09.004Z,73.65
2019-02-07T05:17:42.157Z,73.37
2019-02-07T05:20:16.238Z,73.02
2019-02-07T05:22:53.021Z,72.78
2019-02-07T05:25:59.768Z,72.70
2019-02-07T05:29:12.073Z,72.75
2019-02-07T05:32:45.821Z,72.84
2019-02-07T05:35:27.344Z,72.78
2019-02-07T05:38:08.838Z,72.89
2019-02-07T05:43:31.514Z,73.09
2019-02-07T05:46:13.514Z,73.16
2019-02-07T05:50:52.050Z,73.24
2019-02-07T05:53:26.867Z,73.23
2019-02-07T05:56:02.918Z,73.24
2019-02-07T05:58:38.370Z,73.26
2019-02-07T06:01:14.133Z,72.81
2019-02-07T06:03:48.335Z,72.68
2019-02-07T06:06:22.790Z,72.35
2019-02-07T06:09:02.186Z,72.42
2019-02-07T06:11:42.549Z,72.35
2019-02-07T06:14:17.949Z,72.14
2019-02-07T06:17:02.768Z,71.81
2019-02-07T06:22:35.034Z,71.58
2019-02-07T06:25:10.872Z,71.20
2019-02-07T06:27:47.087Z,71.32
2019-02-07T06:30:29.237Z,71.16
2019-02-07T06:34:12.051Z,71.07
2019-02-07T06:36:51.982Z,71.48
2019-02-07T06:39:28.750Z,71.73
2019-02-07T06:42:08.760Z,71.68
2019-02-07T06:45:16.484Z,71.92
2019-02-07T06:48:00.253Z,71.97
2019-02-07T06:50:46.575Z,71.82
2019-02-07T06:53:27.996Z,71.87
2019-02-07T06:56:06.301Z,71.92
2019-02-07T06:59:15.910Z,71.88
2019-02-07T07:01:52.713Z,72.39
2019-02-07T07:05:27.449Z,72.09
2019-02-07T07:09:07.305Z,72.04
2019-02-07T07:11:49.615Z,72.42
2019-02-07T07:14:29.284Z,72.55
2019-02-07T07:17:11.313Z,72.82
2019-02-07T07:19:47.505Z,72.99
2019-02-07T07:22:22.985Z,73.05
2019-02-07T07:24:59.730Z,73.24
2019-02-07T07:27:38.842Z,73.15
2019-02-07T07:30:48.212Z,73.59
2019-02-07T07:34:20.152Z,73.31
2019-02-07T07:36:55.758Z,73.35
2019-02-07T07:40:29.899Z,73.26
2019-02-07T07:43:06.085Z,73.43
2019-02-07T07:45:44.413Z,73.20
2019-02-07T07:48:18.535Z,73.05
2019-02-07T07:50:51.624Z,73.15
2019-02-07T07:53:57.691Z,73.46
2019-02-07T07:56:44.004Z,73.08
2019-02-07T08:00:20.221Z,72.89
2019-02-07T08:03:10.314Z,72.65
2019-02-07T08:06:50.036Z,72.84
2019-02-07T08:10:25.775Z,72.95
2019-02-07T08:13:59.462Z,72.74
2019-02-07T08:16:47.852Z,72.62
2019-02-07T08:21:28.488Z,72.72
2019-02-07T08:25:06.665Z,72.93
2019-02-07T08:27:43.788Z,73.21
2019-02-07T08:30:19.966Z,73.21
2019-02-07T08:33:04.144Z,73.46
2019-02-07T08:35:44.981Z,73.36
2019-02-07T08:38:31.073Z,73.20
2019-02-07T08:41:08.818Z,72.74
2019-02-07T08:44:45.540Z,72.33
2019-02-07T08:47:23.689Z,72.18
2019-02-07T08:50:02.948Z,72.29
2019-02-07T08:53:43.971Z,72.27
2019-02-07T08:57:19.061Z,72.26
2019-02-07T08:59:59.256Z,72.06
2019-02-07T09:02:51.751Z,72.28
2019-02-07T09:05:35.618Z,72.27
2019-02-07T09:08:16.566Z,71.92
2019-02-07T09:10:58.120Z,71.84
2019-02-07T09:15:39.186Z,72.00
2019-02-07T09:19:18.267Z,72.14
2019-02-07T09:22:26.095Z,72.38
2019-02-07T09:25:08.052Z,72.52
2019-02-07T09:27:47.311Z,72.61
2019-02-07T09:31:32.049Z,72.16
2019-02-07T09:34:10.829Z,72.25
2019-02-07T09:37:19.763Z,72.33
2019-02-07T09:41:59.786Z,72.89
2019-02-07T09:44:34.555Z,73.19
2019-02-07T09:47:08.822Z,73.28
2019-02-07T09:49:46.450Z,73.44
2019-02-07T09:52:22.036Z,73.06
2019-02-07T09:55:00.330Z,73.05
2019-02-07T09:57:49.905Z,72.92
2019-02-07T10:02:29.954Z,72.50
2019-02-07T10:05:09.383Z,72.21
2019-02-07T10:07:48.956Z,72.26
2019-02-07T10:14:41.309Z,72.68
2019-02-07T10:18:20.047Z,72.50
2019-02-07T10:22:01.137Z,72.23
2019-02-07T10:25:08.314Z,71.72
2019-02-07T10:32:13.112Z,71.66
2019-02-07T10:35:48.821Z,71.51
2019-02-07T10:38:25.505Z,71.92
2019-02-07T10:41:04.155Z,71.72
2019-02-07T10:43:42.645Z,72.09
2019-02-07T10:49:26.218Z,72.06
2019-02-07T10:54:07.789Z,72.44
2019-02-07T10:56:45.648Z,72.31
2019-02-07T10:59:20.311Z,72.16
2019-02-07T11:01:57.261Z,72.28
2019-02-07T11:08:45.380Z,72.27
2019-02-07T11:12:22.978Z,71.80
2019-02-07T11:15:00.009Z,71.62
2019-02-07T11:17:38.825Z,71.84
2019-02-07T11:20:18.538Z,71.63
2019-02-07T11:23:58.571Z,71.81
2019-02-07T11:26:33.513Z,71.74
2019-02-07T11:30:13.921Z,71.61
2019-02-07T11:33:47.743Z,71.86
2019-02-07T11:36:24.500Z,72.16
2019-02-07T11:41:04.871Z,72.12
2019-02-07T11:43:45.754Z,71.89
2019-02-07T11:46:29.091Z,72.17
2019-02-07T11:49:06.888Z,72.74
2019-02-07T11:51:47.020Z,73.20
2019-02-07T11:54:23.089Z,73.50
2019-02-07T11:56:59.372Z,73.53
2019-02-07T11:59:36.499Z,73.62
2019-02-07T12:02:17.509Z,73.57
2019-02-07T12:04:55.458Z,73.80
2019-02-07T12:07:32.136Z,73.53
2019-02-07T12:10:17.910Z,73.59
2019-02-07T12:15:11.702Z,73.40
2019-02-07T12:18:52.018Z,73.48
2019-02-07T12:21:44.001Z,73.75
2019-02-07T12:24:22.976Z,73.64
2019-02-07T12:27:06.973Z,73.58
2019-02-07T12:29:45.893Z,73.43
2019-02-07T12:33:21.426Z,73.44
2019-02-07T12:36:59.707Z,73.28
2019-02-07T12:39:35.933Z,73.28
2019-02-07T12:42:10.582Z,73.34
2019-02-07T12:44:48.275Z,73.41
2019-02-07T12:47:38.862Z,73.23
2019-02-07T12:50:17.179Z,73.29
2019-02-07T12:53:07.834Z,73.22
2019-02-07T12:55:53.892Z,73.23
2019-02-07T12:58:32.156Z,73.42
2019-02-07T13:01:08.369Z,73.26
2019-02-07T13:03:42.953Z,73.22
2019-02-07T13:09:18.479Z,73.23
2019-02-07T13:11:53.949Z,73.16
2019-02-07T13:14:31.088Z,73.18
2019-02-07T13:19:13.144Z,73.13
2019-02-07T13:21:51.499Z,73.09
2019-02-07T13:24:43.985Z,73.30
2019-02-07T13:27:22.604Z,73.41
2019-02-07T13:30:05.209Z,73.50
2019-02-07T13:35:58.268Z,73.40
2019-02-07T13:40:36.824Z,73.42
2019-02-07T13:43:11.879Z,73.37
2019-02-07T13:45:50.062Z,73.16
2019-02-07T13:48:28.901Z,73.45
2019-02-07T13:52:06.749Z,73.40
2019-02-07T13:54:47.886Z,73.59
2019-02-07T13:58:27.821Z,73.43
2019-02-07T14:01:17.627Z,74.00
2019-02-07T14:06:00.316Z,74.07
2019-02-07T14:08:42.575Z,73.82
2019-02-07T14:11:21.771Z,73.48
2019-02-07T14:13:56.404Z,73.50
2019-02-07T14:16:30.314Z,73.59
2019-02-07T14:19:11.612Z,73.57
2019-02-07T14:22:03.850Z,73.53
2019-02-07T14:24:43.462Z,73.72
2019-02-07T14:29:32.784Z,73.66
2019-02-07T14:32:07.266Z,73.66
2019-02-07T14:34:43.379Z,73.67
2019-02-07T14:43:02.493Z,73.67
2019-02-07T14:45:42.979Z,73.43
2019-02-07T14:48:18.364Z,73.62
2019-02-07T14:50:52.742Z,73.58
2019-02-07T14:53:22.673Z,73.82
2019-02-07T14:55:51.837Z,73.65
2019-02-07T14:58:22.915Z,73.65
2019-02-07T15:00:53.278Z,73.67
2019-02-07T15:03:24.522Z,73.41
2019-02-07T15:05:55.915Z,73.63
2019-02-07T15:08:34.902Z,73.78
2019-02-07T15:11:10.854Z,73.78
2019-02-07T15:13:42.991Z,73.68
2019-02-07T15:16:19.839Z,73.92
2019-02-07T15:18:52.865Z,73.91
2019-02-07T15:21:24.629Z,74.07
2019-02-07T15:23:59.937Z,74.01
2019-02-07T15:26:51.493Z,74.13
2019-02-07T15:29:22.210Z,74.31
2019-02-07T15:31:57.860Z,74.13
2019-02-07T15:34:29.405Z,74.20
2019-02-07T15:37:02.195Z,74.28
2019-02-07T15:39:35.756Z,74.36
2019-02-07T15:42:08.064Z,74.28
2019-02-07T15:44:40.534Z,74.38
2019-02-07T15:47:10.328Z,74.47
2019-02-07T15:49:43.682Z,74.42
2019-02-07T15:52:13.728Z,74.46
2019-02-07T15:54:49.734Z,74.60
2019-02-07T15:57:23.093Z,74.46
2019-02-07T16:00:04.707Z,74.48
2019-02-07T16:02:44.094Z,74.59
2019-02-07T16:05:19.303Z,74.48
2019-02-07T16:07:49.210Z,74.32
2019-02-07T16:10:20.566Z,74.08
2019-02-07T16:12:53.173Z,74.37
2019-02-07T16:15:25.279Z,74.28
2019-02-07T16:17:55.793Z,74.49
2019-02-07T16:20:26.418Z,74.59
2019-02-07T16:22:59.070Z,74.54
2019-02-07T16:25:31.209Z,74.74
2019-02-07T16:28:00.668Z,74.69
2019-02-07T16:33:15.024Z,74.71
2019-02-07T16:35:46.589Z,74.78
2019-02-07T16:38:27.013Z,74.91
2019-02-07T16:41:00.242Z,74.88
2019-02-07T16:43:34.054Z,75.05
2019-02-07T16:46:04.154Z,75.13
2019-02-07T16:48:37.624Z,75.08
2019-02-07T16:51:10.425Z,75.25
2019-02-07T16:53:44.022Z,75.21
2019-02-07T16:56:13.833Z,75.29
2019-02-07T16:58:50.828Z,75.29
2019-02-07T17:01:22.895Z,75.48
2019-02-07T17:03:52.693Z,75.65
2019-02-07T17:06:24.991Z,75.59
2019-02-07T17:08:57.396Z,75.88
2019-02-07T17:11:29.179Z,76.06
2019-02-07T17:14:01.682Z,76.17
2019-02-07T17:16:33.174Z,76.20
2019-02-07T17:19:10.974Z,76.10
2019-02-07T17:21:48.201Z,76.15
2019-02-07T17:24:24.013Z,76.42
2019-02-07T17:26:55.528Z,76.44
2019-02-07T17:29:27.245Z,76.57
2019-02-07T17:31:58.483Z,76.38
2019-02-07T17:34:38.919Z,76.41
2019-02-07T17:37:12.587Z,76.53
2019-02-07T17:40:00.830Z,76.55
2019-02-07T17:42:32.658Z,76.55
2019-02-07T17:45:03.853Z,76.67
2019-02-07T17:47:41.479Z,76.68
2019-02-07T17:50:22.406Z,76.54
2019-02-07T17:52:59.023Z,76.63
2019-02-07T17:55:31.556Z,76.71
2019-02-07T17:58:06.176Z,76.76
2019-02-07T18:01:04.084Z,76.67
2019-02-07T18:03:37.783Z,76.86
2019-02-07T18:06:10.692Z,76.76
2019-02-07T18:08:44.883Z,76.99
2019-02-07T18:11:18.688Z,76.73
2019-02-07T18:13:55.115Z,76.93
2019-02-07T18:16:29.536Z,76.88
2019-02-07T18:19:01.361Z,76.96
2019-02-07T18:21:34.477Z,76.96
2019-02-07T18:24:07.768Z,76.96
2019-02-07T18:26:39.127Z,77.01
2019-02-07T18:29:10.478Z,77.10
2019-02-07T18:31:43.957Z,76.97
2019-02-07T18:34:15.217Z,77.01
2019-02-07T18:36:46.994Z,77.13
2019-02-07T18:39:19.945Z,76.91
2019-02-07T18:41:53.891Z,77.33
2019-02-07T18:44:23.437Z,77.47
2019-02-07T18:46:53.926Z,77.44
2019-02-07T18:52:01.328Z,77.55
2019-02-07T18:54:33.686Z,77.87
2019-02-07T18:57:02.901Z,77.47
2019-02-07T18:59:37.787Z,77.62
2019-02-07T19:02:10.491Z,77.77
2019-02-07T19:04:48.823Z,77.86
2019-02-07T19:07:23.685Z,77.79
2019-02-07T19:09:52.865Z,77.72
2019-02-07T19:12:24.085Z,77.90
2019-02-07T19:14:59.675Z,78.01
2019-02-07T19:17:33.408Z,78.10
2019-02-07T19:20:06.911Z,78.09
2019-02-07T19:22:38.167Z,78.18
2019-02-07T19:25:14.508Z,78.18
2019-02-07T19:27:47.294Z,78.05
2019-02-07T19:30:23.214Z,78.14
2019-02-07T19:33:01.093Z,77.97
2019-02-07T19:35:35.340Z,78.18
2019-02-07T19:38:08.614Z,78.17
2019-02-07T19:40:40.337Z,78.22
2019-02-07T19:43:14.133Z,78.27
2019-02-07T19:45:45.932Z,78.19
2019-02-07T19:48:19.907Z,78.36
2019-02-07T19:50:55.074Z,78.47
2019-02-07T19:53:29.636Z,78.40
2019-02-07T19:56:11.234Z,78.54
2019-02-07T19:58:50.841Z,78.81
2019-02-07T20:03:59.256Z,78.74
2019-02-07T20:06:29.065Z,79.00
2019-02-07T20:09:04.789Z,79.17
2019-02-07T20:11:35.318Z,79.26
2019-02-07T20:14:08.509Z,78.95
2019-02-07T20:16:43.622Z,78.98
2019-02-07T20:19:15.449Z,79.06
2019-02-07T20:21:45.863Z,79.02
2019-02-07T20:24:17.824Z,79.23
2019-02-07T20:26:50.128Z,79.31
2019-02-07T20:29:26.276Z,79.37
2019-02-07T20:34:36.295Z,79.26
2019-02-07T20:37:09.022Z,79.78
2019-02-07T20:39:44.549Z,79.82
2019-02-07T20:42:26.607Z,80.12
2019-02-07T20:45:07.538Z,80.09
2019-02-07T20:47:40.280Z,79.81
2019-02-07T20:50:16.316Z,79.71
2019-02-07T20:52:50.614Z,79.71
2019-02-07T20:55:31.099Z,79.88
2019-02-07T20:58:02.760Z,79.77
2019-02-07T21:00:37.245Z,79.65
2019-02-07T21:03:08.525Z,79.77
2019-02-07T21:05:40.570Z,79.68
2019-02-07T21:08:15.708Z,79.78
2019-02-07T21:10:52.689Z,79.81
2019-02-07T21:13:33.784Z,79.85
2019-02-07T21:16:10.278Z,79.61
2019-02-07T21:18:42.266Z,79.76
2019-02-07T21:21:18.814Z,79.70
2019-02-07T21:23:52.385Z,79.62
2019-02-07T21:26:23.777Z,79.89
2019-02-07T21:28:54.056Z,79.75
2019-02-07T21:31:25.403Z,79.78
2019-02-07T21:33:57.456Z,79.79
2019-02-07T21:36:27.894Z,80.06
2019-02-07T21:38:58.003Z,80.20
2019-02-07T21:41:31.005Z,80.00
2019-02-07T21:44:06.820Z,80.02
2019-02-07T21:46:38.458Z,80.17
2019-02-07T21:49:09.358Z,80.26
2019-02-07T21:51:39.149Z,80.26
2019-02-07T21:54:10.033Z,80.45
2019-02-07T21:56:39.363Z,80.50
2019-02-07T21:59:13.239Z,80.60
2019-02-07T22:01:44.710Z,80.79
2019-02-07T22:04:15.783Z,80.85
2019-02-07T22:06:45.861Z,81.03
2019-02-07T22:09:18.002Z,81.07
2019-02-07T22:11:54.770Z,81.18
2019-02-07T22:14:25.240Z,81.15
2019-02-07T22:16:56.996Z,81.18
2019-02-07T22:19:35.444Z,81.11
2019-02-07T22:22:10.988Z,81.23
2019-02-07T22:24:44.793Z,81.34
2019-02-07T22:27:15.325Z,81.25
2019-02-07T22:29:46.431Z,81.49
2019-02-07T22:32:18.124Z,81.33
2019-02-07T22:34:50.565Z,81.46
2019-02-07T22:37:21.770Z,81.73
2019-02-07T22:39:53.088Z,81.61
2019-02-07T22:42:25.611Z,81.69
2019-02-07T22:44:56.476Z,81.58
2019-02-07T22:47:28.264Z,81.65
2019-02-07T22:50:00.296Z,81.64
2019-02-07T22:52:35.101Z,81.77
2019-02-07T22:55:08.715Z,81.88
2019-02-07T22:57:39.865Z,81.87
2019-02-07T23:01:15.275Z,81.58
2019-02-07T23:04:01.680Z,81.58
2019-02-07T23:06:35.932Z,81.40
2019-02-07T23:09:09.965Z,81.58
2019-02-07T23:11:50.302Z,81.57
2019-02-07T23:14:28.510Z,81.35
2019-02-07T23:16:58.691Z,81.44
2019-02-07T23:19:31.707Z,81.55
2019-02-07T23:22:06.162Z,81.58
2019-02-07T23:24:38.742Z,81.59
2019-02-07T23:27:10.098Z,81.57
2019-02-07T23:29:40.413Z,81.71
2019-02-07T23:32:10.988Z,81.78
2019-02-07T23:34:40.366Z,81.99
2019-02-07T23:37:09.495Z,82.11
2019-02-07T23:39:41.511Z,81.98
2019-02-07T23:42:18.810Z,82.09
2019-02-07T23:44:50.160Z,81.96
2019-02-07T23:47:20.486Z,82.01
2019-02-07T23:49:59.281Z,81.69
2019-02-07T23:52:32.237Z,81.85
2019-02-07T23:55:02.394Z,81.75
2019-02-07T23:57:32.970Z,81.79
